sensor_id;sensor_type;location;lat;lon;timestamp;pressure;altitude;pressure_sealevel;temperature;humidity
28628;BME280;15815;46.760;19.604;2023-03-16T00:02:21;100269.09;;;3.68;86.29
28628;BME280;15815;46.760;19.604;2023-03-16T00:04:46;100226.34;;;3.41;86.54
28628;BME280;15815;46.760;19.604;2023-03-16T00:07:13;100210.31;;;3.35;85.67
28628;BME280;15815;46.760;19.604;2023-03-16T00:09:39;100232.63;;;3.38;85.81
28628;BME280;15815;46.760;19.604;2023-03-16T00:12:14;100213.97;;;3.23;86.33
28628;BME280;15815;46.760;19.604;2023-03-16T00:14:46;100254.31;;;3.49;86.91
28628;BME280;15815;46.760;19.604;2023-03-16T00:17:15;100230.13;;;3.33;86.44
28628;BME280;15815;46.760;19.604;2023-03-16T00:19:41;100247.69;;;3.37;86.26
28628;BME280;15815;46.760;19.604;2023-03-16T00:22:06;100266.50;;;3.60;86.48
28628;BME280;15815;46.760;19.604;2023-03-16T00:24:40;100250.72;;;3.48;85.72
28628;BME280;15815;46.760;19.604;2023-03-16T00:27:18;100219.06;;;3.21;86.60
28628;BME280;15815;46.760;19.604;2023-03-16T00:29:45;100250.53;;;3.41;86.26
28628;BME280;15815;46.760;19.604;2023-03-16T00:32:15;100249.28;;;3.38;86.17
28628;BME280;15815;46.760;19.604;2023-03-16T00:34:43;100245.72;;;3.38;86.17
28628;BME280;15815;46.760;19.604;2023-03-16T00:37:09;100257.00;;;3.45;86.34
28628;BME280;15815;46.760;19.604;2023-03-16T00:39:35;100250.47;;;3.37;86.16
28628;BME280;15815;46.760;19.604;2023-03-16T00:42:12;100250.38;;;3.34;86.06
28628;BME280;15815;46.760;19.604;2023-03-16T00:44:39;100275.81;;;3.52;85.94
28628;BME280;15815;46.760;19.604;2023-03-16T00:47:05;100226.59;;;3.21;86.01
28628;BME280;15815;46.760;19.604;2023-03-16T00:49:36;100234.47;;;3.19;85.33
28628;BME280;15815;46.760;19.604;2023-03-16T00:52:03;100227.22;;;3.14;85.08
28628;BME280;15815;46.760;19.604;2023-03-16T00:54:44;100267.03;;;3.34;84.33
28628;BME280;15815;46.760;19.604;2023-03-16T00:57:12;100265.78;;;3.31;84.46
28628;BME280;15815;46.760;19.604;2023-03-16T00:59:41;100285.13;;;3.44;84.00
28628;BME280;15815;46.760;19.604;2023-03-16T01:02:08;100270.97;;;3.33;84.04
28628;BME280;15815;46.760;19.604;2023-03-16T01:04:35;100262.81;;;3.24;83.62
28628;BME280;15815;46.760;19.604;2023-03-16T01:07:06;100246.66;;;3.14;83.13
28628;BME280;15815;46.760;19.604;2023-03-16T01:09:33;100249.00;;;3.12;83.43
28628;BME280;15815;46.760;19.604;2023-03-16T01:11:59;100260.66;;;3.18;83.66
28628;BME280;15815;46.760;19.604;2023-03-16T01:14:27;100278.06;;;3.30;83.03
28628;BME280;15815;46.760;19.604;2023-03-16T01:16:52;100230.69;;;2.95;82.70
28628;BME280;15815;46.760;19.604;2023-03-16T01:19:23;100263.59;;;3.09;81.56
28628;BME280;15815;46.760;19.604;2023-03-16T01:21:48;100257.16;;;3.05;82.05
28628;BME280;15815;46.760;19.604;2023-03-16T01:24:14;100245.53;;;2.87;81.40
28628;BME280;15815;46.760;19.604;2023-03-16T01:26:40;100244.81;;;2.90;81.27
28628;BME280;15815;46.760;19.604;2023-03-16T01:29:05;100259.47;;;3.03;80.83
28628;BME280;15815;46.760;19.604;2023-03-16T01:31:33;100247.97;;;2.89;80.73
28628;BME280;15815;46.760;19.604;2023-03-16T01:33:59;100257.19;;;2.93;79.82
28628;BME280;15815;46.760;19.604;2023-03-16T01:36:25;100284.66;;;3.10;80.51
28628;BME280;15815;46.760;19.604;2023-03-16T01:38:54;100262.91;;;2.84;80.80
28628;BME280;15815;46.760;19.604;2023-03-16T01:41:20;100279.94;;;2.98;80.75
28628;BME280;15815;46.760;19.604;2023-03-16T01:43:46;100266.84;;;2.83;80.93
28628;BME280;15815;46.760;19.604;2023-03-16T01:46:18;100294.09;;;2.93;81.02
28628;BME280;15815;46.760;19.604;2023-03-16T01:49:07;100299.53;;;2.90;80.23
28628;BME280;15815;46.760;19.604;2023-03-16T01:51:45;100292.78;;;2.75;79.77
28628;BME280;15815;46.760;19.604;2023-03-16T01:54:30;100288.63;;;2.69;79.64
28628;BME280;15815;46.760;19.604;2023-03-16T01:57:05;100285.09;;;2.56;79.90
28628;BME280;15815;46.760;19.604;2023-03-16T01:59:47;100274.00;;;2.44;79.27
28628;BME280;15815;46.760;19.604;2023-03-16T02:02:19;100277.50;;;2.41;78.19
28628;BME280;15815;46.760;19.604;2023-03-16T02:05:12;100256.97;;;2.17;77.64
28628;BME280;15815;46.760;19.604;2023-03-16T02:07:43;100281.13;;;2.29;77.79
28628;BME280;15815;46.760;19.604;2023-03-16T02:10:14;100286.09;;;2.24;77.76
28628;BME280;15815;46.760;19.604;2023-03-16T02:12:43;100286.31;;;2.18;77.49
28628;BME280;15815;46.760;19.604;2023-03-16T02:15:13;100304.00;;;2.26;77.73
28628;BME280;15815;46.760;19.604;2023-03-16T02:17:40;100265.22;;;1.90;77.75
28628;BME280;15815;46.760;19.604;2023-03-16T02:22:52;100302.53;;;1.92;77.78
28628;BME280;15815;46.760;19.604;2023-03-16T02:25:21;100274.34;;;1.66;77.16
28628;BME280;15815;46.760;19.604;2023-03-16T02:28:06;100324.09;;;1.86;76.92
28628;BME280;15815;46.760;19.604;2023-03-16T02:30:33;100275.25;;;1.45;77.69
28628;BME280;15815;46.760;19.604;2023-03-16T02:32:59;100325.72;;;1.75;77.24
28628;BME280;15815;46.760;19.604;2023-03-16T02:35:24;100299.94;;;1.50;76.98
28628;BME280;15815;46.760;19.604;2023-03-16T02:37:50;100307.56;;;1.41;77.87
28628;BME280;15815;46.760;19.604;2023-03-16T02:40:30;100327.66;;;1.50;78.52
28628;BME280;15815;46.760;19.604;2023-03-16T02:43:00;100340.81;;;1.53;78.71
28628;BME280;15815;46.760;19.604;2023-03-16T02:45:30;100283.28;;;1.14;78.49
28628;BME280;15815;46.760;19.604;2023-03-16T02:47:59;100320.81;;;1.36;78.61
28628;BME280;15815;46.760;19.604;2023-03-16T02:50:27;100298.97;;;1.22;77.29
28628;BME280;15815;46.760;19.604;2023-03-16T02:52:52;100317.91;;;1.32;78.02
28628;BME280;15815;46.760;19.604;2023-03-16T02:55:18;100312.13;;;1.25;77.08
28628;BME280;15815;46.760;19.604;2023-03-16T02:57:44;100318.00;;;1.23;77.56
28628;BME280;15815;46.760;19.604;2023-03-16T03:00:10;100332.44;;;1.29;77.50
28628;BME280;15815;46.760;19.604;2023-03-16T03:02:37;100325.00;;;1.09;77.32
28628;BME280;15815;46.760;19.604;2023-03-16T03:05:03;100338.97;;;1.12;77.48
28628;BME280;15815;46.760;19.604;2023-03-16T03:07:29;100345.09;;;1.18;77.72
28628;BME280;15815;46.760;19.604;2023-03-16T03:09:55;100332.34;;;1.05;77.51
28628;BME280;15815;46.760;19.604;2023-03-16T03:12:20;100361.03;;;1.21;77.09
28628;BME280;15815;46.760;19.604;2023-03-16T03:14:46;100378.38;;;1.30;76.94
28628;BME280;15815;46.760;19.604;2023-03-16T03:17:12;100348.22;;;1.16;76.85
28628;BME280;15815;46.760;19.604;2023-03-16T03:19:38;100339.38;;;1.02;76.16
28628;BME280;15815;46.760;19.604;2023-03-16T03:22:04;100336.16;;;1.00;76.90
28628;BME280;15815;46.760;19.604;2023-03-16T03:24:32;100370.94;;;1.10;77.16
28628;BME280;15815;46.760;19.604;2023-03-16T03:26:58;100352.16;;;0.95;76.88
28628;BME280;15815;46.760;19.604;2023-03-16T03:29:27;100344.41;;;0.88;77.20
28628;BME280;15815;46.760;19.604;2023-03-16T03:31:53;100384.75;;;1.10;77.19
28628;BME280;15815;46.760;19.604;2023-03-16T03:34:19;100372.81;;;0.97;77.32
28628;BME280;15815;46.760;19.604;2023-03-16T03:36:45;100388.53;;;1.05;76.40
28628;BME280;15815;46.760;19.604;2023-03-16T03:39:10;100358.94;;;0.85;76.84
28628;BME280;15815;46.760;19.604;2023-03-16T03:41:36;100401.91;;;1.03;76.68
28628;BME280;15815;46.760;19.604;2023-03-16T03:44:03;100376.13;;;0.90;76.84
28628;BME280;15815;46.760;19.604;2023-03-16T03:46:28;100380.84;;;0.90;76.55
28628;BME280;15815;46.760;19.604;2023-03-16T03:48:55;100369.78;;;0.69;76.54
28628;BME280;15815;46.760;19.604;2023-03-16T03:51:21;100408.41;;;0.86;76.70
28628;BME280;15815;46.760;19.604;2023-03-16T03:53:50;100433.56;;;0.93;76.53
28628;BME280;15815;46.760;19.604;2023-03-16T03:56:16;100399.19;;;0.74;76.72
28628;BME280;15815;46.760;19.604;2023-03-16T03:58:45;100391.19;;;0.60;76.98
28628;BME280;15815;46.760;19.604;2023-03-16T04:01:10;100421.00;;;0.75;76.60
28628;BME280;15815;46.760;19.604;2023-03-16T04:03:38;100415.06;;;0.65;77.01
28628;BME280;15815;46.760;19.604;2023-03-16T04:06:04;100411.38;;;0.52;76.86
28628;BME280;15815;46.760;19.604;2023-03-16T04:08:29;100426.66;;;0.58;77.46
28628;BME280;15815;46.760;19.604;2023-03-16T04:10:55;100424.06;;;0.53;77.56
28628;BME280;15815;46.760;19.604;2023-03-16T04:13:22;100421.03;;;0.46;77.03
28628;BME280;15815;46.760;19.604;2023-03-16T04:15:47;100408.88;;;0.38;77.19
28628;BME280;15815;46.760;19.604;2023-03-16T04:18:13;100415.75;;;0.32;76.96
28628;BME280;15815;46.760;19.604;2023-03-16T04:20:39;100442.88;;;0.39;76.99
28628;BME280;15815;46.760;19.604;2023-03-16T04:23:04;100471.75;;;0.50;77.74
28628;BME280;15815;46.760;19.604;2023-03-16T04:25:30;100471.75;;;0.50;77.54
28628;BME280;15815;46.760;19.604;2023-03-16T04:28:02;100445.50;;;0.26;78.21
28628;BME280;15815;46.760;19.604;2023-03-16T04:30:27;100483.28;;;0.52;78.02
28628;BME280;15815;46.760;19.604;2023-03-16T04:32:53;100462.41;;;0.34;77.46
28628;BME280;15815;46.760;19.604;2023-03-16T04:35:19;100446.84;;;0.20;77.41
28628;BME280;15815;46.760;19.604;2023-03-16T04:37:44;100475.56;;;0.37;77.82
28628;BME280;15815;46.760;19.604;2023-03-16T04:40:10;100476.53;;;0.41;77.96
28628;BME280;15815;46.760;19.604;2023-03-16T04:42:36;100458.56;;;0.17;77.68
28628;BME280;15815;46.760;19.604;2023-03-16T04:45:02;100491.00;;;0.38;77.79
28628;BME280;15815;46.760;19.604;2023-03-16T04:47:31;100486.81;;;0.32;77.97
28628;BME280;15815;46.760;19.604;2023-03-16T04:50:01;100505.47;;;0.43;77.96
28628;BME280;15815;46.760;19.604;2023-03-16T04:52:26;100473.34;;;0.21;77.81
28628;BME280;15815;46.760;19.604;2023-03-16T04:54:52;100504.38;;;0.36;78.42
28628;BME280;15815;46.760;19.604;2023-03-16T04:57:18;100497.88;;;0.32;78.46
28628;BME280;15815;46.760;19.604;2023-03-16T04:59:44;100481.19;;;0.11;78.31
28628;BME280;15815;46.760;19.604;2023-03-16T05:02:10;100497.25;;;0.17;78.25
28628;BME280;15815;46.760;19.604;2023-03-16T05:04:35;100467.41;;;0.02;78.17
28628;BME280;15815;46.760;19.604;2023-03-16T05:07:01;100464.81;;;-0.03;78.07
28628;BME280;15815;46.760;19.604;2023-03-16T05:09:27;100509.94;;;0.18;78.28
28628;BME280;15815;46.760;19.604;2023-03-16T05:11:52;100502.78;;;0.17;78.66
28628;BME280;15815;46.760;19.604;2023-03-16T05:14:22;100515.94;;;0.20;78.91
28628;BME280;15815;46.760;19.604;2023-03-16T05:16:47;100502.94;;;0.21;78.42
28628;BME280;15815;46.760;19.604;2023-03-16T05:19:13;100514.31;;;0.28;78.74
28628;BME280;15815;46.760;19.604;2023-03-16T05:21:38;100498.06;;;0.18;79.26
28628;BME280;15815;46.760;19.604;2023-03-16T05:24:05;100503.41;;;0.23;78.98
28628;BME280;15815;46.760;19.604;2023-03-16T05:26:31;100505.13;;;0.45;78.29
28628;BME280;15815;46.760;19.604;2023-03-16T05:28:56;100509.25;;;0.98;77.40
28628;BME280;15815;46.760;19.604;2023-03-16T05:31:23;100514.41;;;1.49;77.55
28628;BME280;15815;46.760;19.604;2023-03-16T05:33:49;100513.63;;;1.82;77.90
28628;BME280;15815;46.760;19.604;2023-03-16T05:36:15;100541.88;;;2.08;78.88
28628;BME280;15815;46.760;19.604;2023-03-16T05:38:41;100503.13;;;1.88;78.38
28628;BME280;15815;46.760;19.604;2023-03-16T05:41:06;100500.28;;;1.96;78.28
28628;BME280;15815;46.760;19.604;2023-03-16T05:43:34;100518.84;;;2.29;78.21
28628;BME280;15815;46.760;19.604;2023-03-16T05:46:00;100516.09;;;2.53;78.48
28628;BME280;15815;46.760;19.604;2023-03-16T05:48:25;100529.75;;;2.95;78.58
28628;BME280;15815;46.760;19.604;2023-03-16T05:50:52;100509.03;;;3.04;78.20
28628;BME280;15815;46.760;19.604;2023-03-16T05:53:18;100542.78;;;3.31;77.61
28628;BME280;15815;46.760;19.604;2023-03-16T05:55:53;100542.44;;;3.72;76.77
28628;BME280;15815;46.760;19.604;2023-03-16T05:58:18;100546.16;;;4.20;78.39
28628;BME280;15815;46.760;19.604;2023-03-16T06:00:44;100542.94;;;4.34;77.56
28628;BME280;15815;46.760;19.604;2023-03-16T06:03:09;100553.03;;;4.54;75.02
28628;BME280;15815;46.760;19.604;2023-03-16T06:05:35;100521.41;;;4.94;78.99
28628;BME280;15815;46.760;19.604;2023-03-16T06:08:01;100539.84;;;5.34;77.47
28628;BME280;15815;46.760;19.604;2023-03-16T06:10:26;100549.78;;;5.70;78.61
28628;BME280;15815;46.760;19.604;2023-03-16T06:12:52;100538.31;;;5.91;81.01
28628;BME280;15815;46.760;19.604;2023-03-16T06:15:18;100550.34;;;5.95;73.68
28628;BME280;15815;46.760;19.604;2023-03-16T06:17:43;100560.50;;;6.68;78.39
28628;BME280;15815;46.760;19.604;2023-03-16T06:20:11;100566.38;;;7.35;73.96
28628;BME280;15815;46.760;19.604;2023-03-16T06:22:41;100577.00;;;7.79;77.89
28628;BME280;15815;46.760;19.604;2023-03-16T06:25:07;100577.97;;;8.23;76.52
28628;BME280;15815;46.760;19.604;2023-03-16T06:27:35;100564.06;;;9.12;80.09
28628;BME280;15815;46.760;19.604;2023-03-16T06:30:02;100576.81;;;9.60;81.25
28628;BME280;15815;46.760;19.604;2023-03-16T06:32:27;100602.88;;;10.34;80.32
28628;BME280;15815;46.760;19.604;2023-03-16T06:34:53;100586.06;;;10.55;80.19
28628;BME280;15815;46.760;19.604;2023-03-16T06:37:19;100610.25;;;11.13;80.54
28628;BME280;15815;46.760;19.604;2023-03-16T06:39:44;100592.59;;;11.23;77.86
28628;BME280;15815;46.760;19.604;2023-03-16T06:42:13;100617.09;;;11.55;75.80
28628;BME280;15815;46.760;19.604;2023-03-16T06:44:38;100608.88;;;12.24;77.07
28628;BME280;15815;46.760;19.604;2023-03-16T06:47:04;100618.66;;;12.79;79.06
28628;BME280;15815;46.760;19.604;2023-03-16T06:49:33;100606.97;;;12.80;75.49
28628;BME280;15815;46.760;19.604;2023-03-16T06:51:59;100619.84;;;13.40;68.70
28628;BME280;15815;46.760;19.604;2023-03-16T06:54:24;100614.69;;;13.76;75.55
28628;BME280;15815;46.760;19.604;2023-03-16T06:56:50;100631.84;;;13.92;69.39
28628;BME280;15815;46.760;19.604;2023-03-16T06:59:16;100647.81;;;14.10;62.74
28628;BME280;15815;46.760;19.604;2023-03-16T07:01:41;100613.22;;;14.67;72.98
28628;BME280;15815;46.760;19.604;2023-03-16T07:04:08;100616.03;;;15.21;73.29
28628;BME280;15815;46.760;19.604;2023-03-16T07:06:33;100639.31;;;15.08;67.58
28628;BME280;15815;46.760;19.604;2023-03-16T07:09:01;100650.63;;;15.59;70.53
28628;BME280;15815;46.760;19.604;2023-03-16T07:11:27;100625.59;;;16.00;69.48
28628;BME280;15815;46.760;19.604;2023-03-16T07:13:54;100639.56;;;16.11;68.21
28628;BME280;15815;46.760;19.604;2023-03-16T07:16:19;100643.16;;;16.75;69.02
28628;BME280;15815;46.760;19.604;2023-03-16T07:18:45;100654.59;;;16.71;62.51
28628;BME280;15815;46.760;19.604;2023-03-16T07:21:10;100645.44;;;17.48;68.03
28628;BME280;15815;46.760;19.604;2023-03-16T07:23:36;100643.06;;;17.63;66.98
28628;BME280;15815;46.760;19.604;2023-03-16T07:26:04;100651.31;;;17.90;54.92
28628;BME280;15815;46.760;19.604;2023-03-16T07:28:30;100661.25;;;18.27;65.69
28628;BME280;15815;46.760;19.604;2023-03-16T07:30:56;100674.88;;;18.36;58.83
28628;BME280;15815;46.760;19.604;2023-03-16T07:33:21;100670.31;;;18.09;55.62
28628;BME280;15815;46.760;19.604;2023-03-16T07:35:48;100659.28;;;18.69;63.26
28628;BME280;15815;46.760;19.604;2023-03-16T07:41:08;100671.16;;;19.06;64.09
28628;BME280;15815;46.760;19.604;2023-03-16T07:43:38;100666.75;;;19.56;53.64
28628;BME280;15815;46.760;19.604;2023-03-16T07:46:06;100680.09;;;19.46;58.88
28628;BME280;15815;46.760;19.604;2023-03-16T07:48:32;100669.03;;;19.48;58.69
28628;BME280;15815;46.760;19.604;2023-03-16T07:51:06;100691.69;;;19.52;50.36
28628;BME280;15815;46.760;19.604;2023-03-16T07:53:33;100697.38;;;19.90;44.83
28628;BME280;15815;46.760;19.604;2023-03-16T07:56:03;100685.31;;;19.73;56.53
28628;BME280;15815;46.760;19.604;2023-03-16T07:58:30;100685.41;;;19.82;44.45
28628;BME280;15815;46.760;19.604;2023-03-16T08:00:59;100703.66;;;20.32;43.03
28628;BME280;15815;46.760;19.604;2023-03-16T08:03:28;100676.56;;;20.36;44.42
28628;BME280;15815;46.760;19.604;2023-03-16T08:05:54;100693.38;;;21.31;47.61
28628;BME280;15815;46.760;19.604;2023-03-16T08:08:21;100713.50;;;21.58;46.68
28628;BME280;15815;46.760;19.604;2023-03-16T08:10:48;100701.19;;;21.80;45.34
28628;BME280;15815;46.760;19.604;2023-03-16T08:13:14;100679.31;;;21.46;43.49
28628;BME280;15815;46.760;19.604;2023-03-16T08:15:42;100700.59;;;21.45;44.45
28628;BME280;15815;46.760;19.604;2023-03-16T08:18:10;100684.28;;;22.22;44.49
28628;BME280;15815;46.760;19.604;2023-03-16T08:20:36;100702.09;;;22.63;45.12
28628;BME280;15815;46.760;19.604;2023-03-16T08:23:02;100717.34;;;22.14;39.58
28628;BME280;15815;46.760;19.604;2023-03-16T08:25:29;100713.69;;;22.87;41.52
28628;BME280;15815;46.760;19.604;2023-03-16T08:28:04;100711.84;;;23.26;34.58
28628;BME280;15815;46.760;19.604;2023-03-16T08:30:34;100728.78;;;23.15;36.97
28628;BME280;15815;46.760;19.604;2023-03-16T08:33:00;100718.44;;;23.50;37.70
28628;BME280;15815;46.760;19.604;2023-03-16T08:35:26;100722.88;;;23.18;35.62
28628;BME280;15815;46.760;19.604;2023-03-16T08:37:55;100724.00;;;23.96;34.64
28628;BME280;15815;46.760;19.604;2023-03-16T08:40:22;100726.53;;;23.19;30.52
28628;BME280;15815;46.760;19.604;2023-03-16T08:42:49;100722.19;;;23.32;31.27
28628;BME280;15815;46.760;19.604;2023-03-16T08:45:15;100727.03;;;23.92;32.68
28628;BME280;15815;46.760;19.604;2023-03-16T08:47:42;100708.97;;;24.01;31.79
28628;BME280;15815;46.760;19.604;2023-03-16T08:50:10;100735.84;;;24.37;31.85
28628;BME280;15815;46.760;19.604;2023-03-16T08:52:36;100724.69;;;24.39;30.51
28628;BME280;15815;46.760;19.604;2023-03-16T08:55:05;100716.47;;;23.98;28.77
28628;BME280;15815;46.760;19.604;2023-03-16T08:57:37;100715.09;;;24.42;26.85
28628;BME280;15815;46.760;19.604;2023-03-16T09:00:04;100714.94;;;24.36;26.97
28628;BME280;15815;46.760;19.604;2023-03-16T09:02:29;100723.84;;;24.62;27.72
28628;BME280;15815;46.760;19.604;2023-03-16T09:04:55;100738.34;;;24.68;27.36
28628;BME280;15815;46.760;19.604;2023-03-16T09:07:21;100747.03;;;23.78;25.33
28628;BME280;15815;46.760;19.604;2023-03-16T09:09:48;100726.13;;;24.34;27.74
28628;BME280;15815;46.760;19.604;2023-03-16T09:12:18;100718.09;;;24.62;24.01
28628;BME280;15815;46.760;19.604;2023-03-16T09:14:44;100712.88;;;24.75;26.10
28628;BME280;15815;46.760;19.604;2023-03-16T09:17:09;100730.66;;;24.50;26.58
28628;BME280;15815;46.760;19.604;2023-03-16T09:19:35;100730.94;;;24.04;23.92
28628;BME280;15815;46.760;19.604;2023-03-16T09:22:01;100732.06;;;24.30;24.83
28628;BME280;15815;46.760;19.604;2023-03-16T09:24:26;100734.56;;;24.14;26.68
28628;BME280;15815;46.760;19.604;2023-03-16T09:26:53;100735.72;;;24.55;24.32
28628;BME280;15815;46.760;19.604;2023-03-16T09:29:19;100743.00;;;24.17;24.53
28628;BME280;15815;46.760;19.604;2023-03-16T09:31:52;100763.97;;;24.56;24.86
28628;BME280;15815;46.760;19.604;2023-03-16T09:34:17;100738.72;;;24.37;23.69
28628;BME280;15815;46.760;19.604;2023-03-16T09:36:43;100734.28;;;24.12;23.09
28628;BME280;15815;46.760;19.604;2023-03-16T09:39:11;100757.06;;;24.15;23.09
28628;BME280;15815;46.760;19.604;2023-03-16T09:41:46;100753.47;;;24.29;22.84
28628;BME280;15815;46.760;19.604;2023-03-16T09:47:22;100751.56;;;23.00;24.87
28628;BME280;15815;46.760;19.604;2023-03-16T09:49:53;100768.00;;;24.26;26.67
28628;BME280;15815;46.760;19.604;2023-03-16T09:52:27;100773.84;;;24.41;25.74
28628;BME280;15815;46.760;19.604;2023-03-16T09:57:29;100752.97;;;24.55;25.96
28628;BME280;15815;46.760;19.604;2023-03-16T10:00:23;100776.88;;;23.10;24.62
28628;BME280;15815;46.760;19.604;2023-03-16T10:05:39;100778.97;;;20.47;27.74
28628;BME280;15815;46.760;19.604;2023-03-16T10:08:23;100782.47;;;20.17;26.93
28628;BME280;15815;46.760;19.604;2023-03-16T10:16:31;100775.09;;;21.81;26.12
28628;BME280;15815;46.760;19.604;2023-03-16T10:19:07;100765.81;;;20.84;27.75
28628;BME280;15815;46.760;19.604;2023-03-16T10:21:38;100747.59;;;20.34;27.09
28628;BME280;15815;46.760;19.604;2023-03-16T10:24:17;100766.88;;;20.43;27.38
28628;BME280;15815;46.760;19.604;2023-03-16T10:26:52;100764.59;;;19.78;27.83
28628;BME280;15815;46.760;19.604;2023-03-16T10:29:19;100763.25;;;21.61;27.96
28628;BME280;15815;46.760;19.604;2023-03-16T10:31:47;100769.56;;;22.64;26.82
28628;BME280;15815;46.760;19.604;2023-03-16T10:34:12;100770.47;;;23.34;26.71
28628;BME280;15815;46.760;19.604;2023-03-16T10:36:43;100753.63;;;21.77;26.95
28628;BME280;15815;46.760;19.604;2023-03-16T10:39:18;100753.22;;;21.97;23.27
28628;BME280;15815;46.760;19.604;2023-03-16T10:41:46;100750.47;;;22.70;24.76
28628;BME280;15815;46.760;19.604;2023-03-16T10:44:25;100757.47;;;22.96;22.59
28628;BME280;15815;46.760;19.604;2023-03-16T10:47:00;100740.06;;;24.26;23.07
28628;BME280;15815;46.760;19.604;2023-03-16T10:49:37;100752.78;;;23.78;22.52
28628;BME280;15815;46.760;19.604;2023-03-16T10:52:13;100753.50;;;23.96;22.36
28628;BME280;15815;46.760;19.604;2023-03-16T10:54:48;100757.41;;;22.05;22.94
28628;BME280;15815;46.760;19.604;2023-03-16T10:59:51;100734.47;;;19.52;25.24
28628;BME280;15815;46.760;19.604;2023-03-16T11:02:19;100759.91;;;18.92;25.80
28628;BME280;15815;46.760;19.604;2023-03-16T11:04:45;100756.00;;;18.86;27.29
28628;BME280;15815;46.760;19.604;2023-03-16T11:07:19;100766.38;;;18.79;27.31
28628;BME280;15815;46.760;19.604;2023-03-16T11:09:45;100781.81;;;18.33;26.94
28628;BME280;15815;46.760;19.604;2023-03-16T11:12:30;100731.91;;;19.03;25.91
28628;BME280;15815;46.760;19.604;2023-03-16T11:15:12;100734.72;;;20.86;24.62
28628;BME280;15815;46.760;19.604;2023-03-16T11:17:42;100767.34;;;20.98;24.18
28628;BME280;15815;46.760;19.604;2023-03-16T11:20:24;100736.38;;;20.05;23.61
28628;BME280;15815;46.760;19.604;2023-03-16T11:22:53;100758.06;;;19.90;25.10
28628;BME280;15815;46.760;19.604;2023-03-16T11:25:32;100753.66;;;18.39;26.82
28628;BME280;15815;46.760;19.604;2023-03-16T11:33:13;100737.94;;;18.02;27.17
28628;BME280;15815;46.760;19.604;2023-03-16T11:36:27;100768.16;;;17.79;26.34
28628;BME280;15815;46.760;19.604;2023-03-16T11:39:28;100766.53;;;17.62;25.56
28628;BME280;15815;46.760;19.604;2023-03-16T11:42:08;100740.25;;;18.52;25.39
28628;BME280;15815;46.760;19.604;2023-03-16T11:44:54;100754.72;;;18.29;24.90
28628;BME280;15815;46.760;19.604;2023-03-16T11:47:44;100750.47;;;18.95;26.87
28628;BME280;15815;46.760;19.604;2023-03-16T11:50:36;100755.25;;;18.98;26.31
28628;BME280;15815;46.760;19.604;2023-03-16T11:56:23;100751.03;;;17.99;25.47
28628;BME280;15815;46.760;19.604;2023-03-16T11:59:17;100751.78;;;16.95;25.54
28628;BME280;15815;46.760;19.604;2023-03-16T12:02:11;100756.81;;;16.67;26.11
28628;BME280;15815;46.760;19.604;2023-03-16T12:07:51;100748.75;;;17.22;28.18
28628;BME280;15815;46.760;19.604;2023-03-16T12:16:24;100750.38;;;17.23;25.72
28628;BME280;15815;46.760;19.604;2023-03-16T12:18:59;100750.88;;;17.18;26.48
28628;BME280;15815;46.760;19.604;2023-03-16T12:24:04;100738.34;;;16.99;27.71
28628;BME280;15815;46.760;19.604;2023-03-16T12:26:37;100735.63;;;17.12;27.67
28628;BME280;15815;46.760;19.604;2023-03-16T12:29:33;100755.13;;;16.90;26.84
28628;BME280;15815;46.760;19.604;2023-03-16T12:32:28;100737.03;;;16.41;27.57
28628;BME280;15815;46.760;19.604;2023-03-16T12:38:14;100750.25;;;15.81;28.60
28628;BME280;15815;46.760;19.604;2023-03-16T12:46:55;100743.56;;;15.94;26.99
28628;BME280;15815;46.760;19.604;2023-03-16T12:49:24;100749.31;;;15.91;28.02
28628;BME280;15815;46.760;19.604;2023-03-16T12:51:59;100749.34;;;15.87;28.86
28628;BME280;15815;46.760;19.604;2023-03-16T12:54:25;100748.78;;;15.72;28.21
28628;BME280;15815;46.760;19.604;2023-03-16T12:56:53;100749.31;;;15.37;28.70
28628;BME280;15815;46.760;19.604;2023-03-16T12:59:24;100729.56;;;15.57;28.90
28628;BME280;15815;46.760;19.604;2023-03-16T13:02:01;100746.97;;;15.59;29.45
28628;BME280;15815;46.760;19.604;2023-03-16T13:04:32;100752.28;;;14.96;25.88
28628;BME280;15815;46.760;19.604;2023-03-16T13:07:00;100751.63;;;15.15;28.84
28628;BME280;15815;46.760;19.604;2023-03-16T13:09:27;100755.16;;;15.23;27.74
28628;BME280;15815;46.760;19.604;2023-03-16T13:11:53;100757.25;;;14.88;27.65
28628;BME280;15815;46.760;19.604;2023-03-16T13:14:38;100748.44;;;14.79;28.55
28628;BME280;15815;46.760;19.604;2023-03-16T13:27:57;100744.16;;;14.30;29.25
28628;BME280;15815;46.760;19.604;2023-03-16T13:30:33;100716.13;;;14.42;28.00
28628;BME280;15815;46.760;19.604;2023-03-16T13:33:13;100737.97;;;14.76;28.66
28628;BME280;15815;46.760;19.604;2023-03-16T13:35:42;100733.06;;;14.83;29.36
28628;BME280;15815;46.760;19.604;2023-03-16T13:38:18;100738.91;;;14.66;28.88
28628;BME280;15815;46.760;19.604;2023-03-16T13:40:50;100721.03;;;14.72;29.96
28628;BME280;15815;46.760;19.604;2023-03-16T13:43:24;100736.84;;;15.00;28.69
28628;BME280;15815;46.760;19.604;2023-03-16T13:45:50;100714.16;;;14.73;28.38
28628;BME280;15815;46.760;19.604;2023-03-16T13:48:20;100729.75;;;14.89;30.06
28628;BME280;15815;46.760;19.604;2023-03-16T13:50:54;100740.13;;;14.99;29.35
28628;BME280;15815;46.760;19.604;2023-03-16T13:55:48;100753.81;;;15.31;30.79
28628;BME280;15815;46.760;19.604;2023-03-16T13:58:30;100751.03;;;14.66;26.82
28628;BME280;15815;46.760;19.604;2023-03-16T14:00:59;100763.00;;;14.81;29.09
28628;BME280;15815;46.760;19.604;2023-03-16T14:03:43;100735.47;;;14.85;28.79